createdAt,value
2022-12-25T00:00:42.925Z,4.66
2022-12-25T00:03:30.147Z,4.69
2022-12-25T00:05:59.954Z,4.72
2022-12-25T00:08:26.908Z,4.77
2022-12-25T00:11:01.603Z,4.78
2022-12-25T00:13:30.564Z,4.81
2022-12-25T00:15:58.226Z,4.81
2022-12-25T00:18:25.677Z,4.78
2022-12-25T00:21:01.488Z,4.86
2022-12-25T00:23:29.111Z,4.82
2022-12-25T00:25:56.832Z,4.87
2022-12-25T00:28:25.904Z,4.81
2022-12-25T00:30:53.398Z,4.81
2022-12-25T00:33:20.407Z,4.89
2022-12-25T00:35:58.927Z,4.94
2022-12-25T00:38:26.325Z,4.97
2022-12-25T00:40:53.936Z,4.98
2022-12-25T00:43:21.881Z,4.99
2022-12-25T00:46:00.981Z,5.02
2022-12-25T00:48:29.875Z,5.00
2022-12-25T00:50:59.442Z,4.95
2022-12-25T00:53:28.258Z,4.93
2022-12-25T00:56:01.927Z,4.88
2022-12-25T00:58:31.152Z,4.84
2022-12-25T01:00:59.428Z,4.76
2022-12-25T01:03:27.192Z,4.84
2022-12-25T01:06:07.558Z,4.87
2022-12-25T01:08:37.755Z,4.84
2022-12-25T01:11:07.945Z,4.87
2022-12-25T01:13:36.917Z,4.84
2022-12-25T01:16:10.763Z,4.87
2022-12-25T01:18:38.272Z,4.89
2022-12-25T01:21:11.272Z,4.89
2022-12-25T01:23:38.857Z,4.93
2022-12-25T01:26:07.583Z,4.97
2022-12-25T01:28:35.168Z,4.99
2022-12-25T01:31:03.599Z,5.00
2022-12-25T01:33:30.775Z,5.01
2022-12-25T01:35:59.802Z,4.99
2022-12-25T01:38:27.168Z,4.99
2022-12-25T01:40:55.073Z,4.92
2022-12-25T01:43:31.889Z,4.89
2022-12-25T01:45:59.970Z,4.89
2022-12-25T01:48:34.587Z,4.84
2022-12-25T01:51:06.869Z,4.82
2022-12-25T01:53:34.088Z,4.79
2022-12-25T01:56:06.310Z,4.77
2022-12-25T01:58:33.989Z,4.72
2022-12-25T02:01:01.585Z,4.70
2022-12-25T02:03:29.010Z,4.67
2022-12-25T02:05:57.846Z,4.68
2022-12-25T02:08:32.463Z,4.60
2022-12-25T02:11:01.738Z,4.55
2022-12-25T02:13:29.107Z,4.55
2022-12-25T02:16:21.063Z,4.44
2022-12-25T02:18:54.271Z,4.42
2022-12-25T02:21:40.479Z,4.38
2022-12-25T02:24:10.683Z,4.34
2022-12-25T02:27:07.358Z,4.37
2022-12-25T02:29:52.937Z,4.42
2022-12-25T02:32:23.270Z,4.47
2022-12-25T02:35:05.593Z,4.52
2022-12-25T02:37:51.868Z,4.57
2022-12-25T02:40:37.482Z,4.66
2022-12-25T02:43:34.652Z,4.71
2022-12-25T02:46:25.314Z,4.72
2022-12-25T02:49:15.706Z,4.73
2022-12-25T02:52:08.549Z,4.78
2022-12-25T02:55:04.210Z,4.84
2022-12-25T02:57:59.868Z,4.82
2022-12-25T03:00:45.777Z,4.74
2022-12-25T03:03:33.648Z,4.70
2022-12-25T03:06:22.739Z,4.66
2022-12-25T03:08:53.788Z,4.69
2022-12-25T03:11:32.479Z,4.66
2022-12-25T03:14:22.061Z,4.65
2022-12-25T03:16:56.208Z,4.61
2022-12-25T03:19:45.150Z,4.65
2022-12-25T03:22:38.238Z,4.60
2022-12-25T03:25:25.860Z,4.61
2022-12-25T03:27:57.477Z,4.67
2022-12-25T03:30:53.283Z,4.70
2022-12-25T03:34:17.921Z,4.73
2022-12-25T03:37:22.537Z,4.78
2022-12-25T03:40:43.218Z,4.85
2022-12-25T03:43:47.518Z,4.86
2022-12-25T03:46:56.020Z,4.90
2022-12-25T03:49:45.026Z,4.95
2022-12-25T03:52:33.894Z,4.97
2022-12-25T03:55:25.639Z,4.99
2022-12-25T03:58:14.580Z,5.03
2022-12-25T04:01:00.974Z,5.07
2022-12-25T04:03:47.024Z,5.07
2022-12-25T04:06:32.668Z,5.10
2022-12-25T04:09:18.746Z,5.12
2022-12-25T04:12:04.631Z,5.14
2022-12-25T04:14:50.961Z,5.18
2022-12-25T04:17:36.615Z,5.23
2022-12-25T04:20:23.781Z,5.21
2022-12-25T04:23:09.936Z,5.23
2022-12-25T04:25:55.928Z,5.24
2022-12-25T04:28:41.599Z,5.19
2022-12-25T04:31:27.729Z,5.22
2022-12-25T04:34:13.191Z,5.20
2022-12-25T04:42:26.320Z,5.23
2022-12-25T04:44:53.536Z,5.26
2022-12-25T04:47:20.945Z,5.23
2022-12-25T04:49:47.993Z,5.25
2022-12-25T04:52:15.548Z,5.22
2022-12-25T04:54:42.623Z,5.24
2022-12-25T04:57:10.099Z,5.26
2022-12-25T04:59:37.235Z,5.21
2022-12-25T05:02:05.305Z,5.23
2022-12-25T05:04:32.980Z,5.23
2022-12-25T05:07:03.618Z,5.23
2022-12-25T05:09:32.574Z,5.29
2022-12-25T05:12:01.220Z,5.31
2022-12-25T05:14:30.381Z,5.31
2022-12-25T05:19:41.852Z,5.35
2022-12-25T05:22:09.863Z,5.39
2022-12-25T05:24:36.869Z,5.40
2022-12-25T05:27:04.245Z,5.36
2022-12-25T05:29:31.306Z,5.43
2022-12-25T05:31:58.599Z,5.47
2022-12-25T05:40:06.272Z,5.51
2022-12-25T05:42:34.090Z,5.49
2022-12-25T05:45:01.633Z,5.50
2022-12-25T05:47:28.761Z,5.48
2022-12-25T05:49:58.414Z,5.44
2022-12-25T05:52:25.312Z,5.47
2022-12-25T05:54:53.153Z,5.46
2022-12-25T05:57:24.883Z,5.49
2022-12-25T05:59:52.381Z,5.36
2022-12-25T06:02:19.651Z,5.40
2022-12-25T06:04:47.282Z,5.33
2022-12-25T06:07:14.389Z,5.32
2022-12-25T06:09:42.860Z,5.28
2022-12-25T06:12:09.837Z,5.32
2022-12-25T06:14:38.709Z,5.32
2022-12-25T06:17:05.809Z,5.32
2022-12-25T06:19:33.312Z,5.37
2022-12-25T06:22:02.046Z,5.34
2022-12-25T06:24:29.643Z,5.34
2022-12-25T06:26:56.850Z,5.33
2022-12-25T06:29:25.605Z,5.38
2022-12-25T06:31:59.030Z,5.37
2022-12-25T06:34:27.319Z,5.33
2022-12-25T06:36:54.772Z,5.31
2022-12-25T06:39:22.724Z,5.38
2022-12-25T06:41:49.807Z,5.33
2022-12-25T06:44:18.504Z,5.38
2022-12-25T06:46:45.674Z,5.34
2022-12-25T06:49:15.526Z,5.34
2022-12-25T06:51:45.269Z,5.26
2022-12-25T06:54:12.733Z,5.33
2022-12-25T06:56:41.955Z,5.34
2022-12-25T06:59:11.734Z,5.36
2022-12-25T07:01:53.703Z,5.39
2022-12-25T07:04:27.591Z,5.41
2022-12-25T07:06:54.840Z,5.38
2022-12-25T07:10:09.892Z,5.42
2022-12-25T07:12:38.666Z,5.46
2022-12-25T07:15:10.388Z,5.37
2022-12-25T07:17:37.604Z,5.36
2022-12-25T07:20:07.573Z,5.39
2022-12-25T07:22:35.703Z,5.41
2022-12-25T07:25:03.782Z,5.35
2022-12-25T07:27:32.511Z,5.39
2022-12-25T07:30:04.442Z,5.30
2022-12-25T07:32:32.212Z,5.36
2022-12-25T07:35:04.492Z,5.29
2022-12-25T07:37:31.572Z,5.34
2022-12-25T07:39:59.690Z,5.37
2022-12-25T07:42:30.178Z,5.31
2022-12-25T07:44:57.589Z,5.37
2022-12-25T07:47:35.331Z,5.44
2022-12-25T07:50:08.423Z,5.43
2022-12-25T07:52:42.997Z,5.45
2022-12-25T07:55:11.195Z,5.43
2022-12-25T07:57:44.903Z,5.41
2022-12-25T08:00:13.579Z,5.40
2022-12-25T08:02:41.781Z,5.48
2022-12-25T08:05:09.934Z,5.43
2022-12-25T08:07:38.504Z,5.29
2022-12-25T08:10:10.909Z,5.31
2022-12-25T08:12:43.136Z,5.21
2022-12-25T08:15:13.764Z,5.29
2022-12-25T08:17:46.189Z,5.24
2022-12-25T08:20:14.940Z,5.18
2022-12-25T08:22:42.694Z,5.23
2022-12-25T08:25:10.337Z,5.13
2022-12-25T08:27:38.391Z,5.16
2022-12-25T08:30:07.383Z,5.18
2022-12-25T08:32:36.745Z,5.15
2022-12-25T08:35:05.660Z,5.15
2022-12-25T08:37:35.192Z,5.14
2022-12-25T08:40:03.553Z,5.05
2022-12-25T08:42:36.809Z,5.03
2022-12-25T08:45:06.136Z,5.09
2022-12-25T08:47:44.337Z,5.09
2022-12-25T08:50:19.648Z,5.06
2022-12-25T08:53:05.897Z,5.04
2022-12-25T08:55:35.350Z,5.08
2022-12-25T08:58:04.391Z,5.07
2022-12-25T09:00:32.163Z,5.13
2022-12-25T09:02:59.496Z,5.13
2022-12-25T09:05:27.372Z,5.06
2022-12-25T09:07:54.675Z,5.14
2022-12-25T09:10:22.250Z,5.19
2022-12-25T09:12:49.319Z,5.18
2022-12-25T09:15:17.669Z,5.24
2022-12-25T09:17:45.687Z,5.16
2022-12-25T09:20:13.134Z,5.19
2022-12-25T09:22:40.226Z,5.17
2022-12-25T09:25:09.392Z,5.18
2022-12-25T09:27:36.562Z,5.29
2022-12-25T09:30:04.861Z,5.31
2022-12-25T09:32:32.215Z,5.37
2022-12-25T09:34:59.669Z,5.43
2022-12-25T09:37:26.926Z,5.51
2022-12-25T09:39:54.376Z,5.52
2022-12-25T09:42:25.375Z,5.55
2022-12-25T09:45:01.081Z,5.53
2022-12-25T09:47:42.801Z,5.54
2022-12-25T09:50:11.424Z,5.59
2022-12-25T09:52:55.996Z,5.55
2022-12-25T09:55:28.833Z,5.60
2022-12-25T09:57:59.256Z,5.61
2022-12-25T10:00:36.677Z,5.61
2022-12-25T10:03:18.099Z,5.62
2022-12-25T10:05:58.123Z,5.61
2022-12-25T10:08:50.212Z,5.57
2022-12-25T10:12:00.207Z,5.53
2022-12-25T10:15:01.547Z,5.49
2022-12-25T10:20:37.306Z,5.41
2022-12-25T10:25:59.058Z,5.37
2022-12-25T10:28:58.917Z,5.37
2022-12-25T10:31:28.554Z,5.34
2022-12-25T10:33:55.946Z,5.35
2022-12-25T10:36:26.490Z,5.39
2022-12-25T10:38:54.519Z,5.38
2022-12-25T10:41:40.730Z,5.37
2022-12-25T10:44:20.273Z,5.35
2022-12-25T10:46:59.914Z,5.36
2022-12-25T10:49:34.301Z,5.36
2022-12-25T10:52:04.191Z,5.36
2022-12-25T10:54:44.511Z,5.36
2022-12-25T10:57:46.113Z,5.35
2022-12-25T11:03:31.681Z,5.32
2022-12-25T11:05:59.215Z,5.28
2022-12-25T11:08:31.548Z,5.27
2022-12-25T11:11:07.563Z,5.27
2022-12-25T11:13:39.675Z,5.30
2022-12-25T11:16:46.242Z,5.28
2022-12-25T11:20:01.171Z,5.34
2022-12-25T11:22:30.424Z,5.34
2022-12-25T11:24:58.359Z,5.29
2022-12-25T11:27:30.319Z,5.27
2022-12-25T11:30:11.243Z,5.25
2022-12-25T11:32:46.729Z,5.25
2022-12-25T11:35:18.630Z,5.27
2022-12-25T11:37:53.217Z,5.32
2022-12-25T11:40:29.847Z,5.27
2022-12-25T11:49:14.420Z,5.40
2022-12-25T11:51:45.112Z,5.40
2022-12-25T11:57:13.140Z,5.33
2022-12-25T12:00:09.466Z,5.46
2022-12-25T12:02:43.549Z,5.48
2022-12-25T12:05:23.614Z,5.51
2022-12-25T12:07:58.882Z,5.51
2022-12-25T12:10:44.000Z,5.49
2022-12-25T12:13:20.540Z,5.52
2022-12-25T12:15:49.537Z,5.51
2022-12-25T12:18:40.430Z,5.47
2022-12-25T12:21:30.653Z,5.41
2022-12-25T12:24:13.037Z,5.49
2022-12-25T12:26:42.646Z,5.49
2022-12-25T12:29:28.125Z,5.50
2022-12-25T12:32:02.861Z,5.43
2022-12-25T12:34:43.095Z,5.41
2022-12-25T12:37:30.714Z,5.40
2022-12-25T12:39:59.826Z,5.41
2022-12-25T12:42:39.036Z,5.47
2022-12-25T12:45:10.545Z,5.49
2022-12-25T12:47:47.033Z,5.47
2022-12-25T12:53:52.303Z,5.53
2022-12-25T12:56:27.134Z,5.54
2022-12-25T12:59:03.081Z,5.53
2022-12-25T13:02:20.012Z,5.55
2022-12-25T13:05:01.371Z,5.44
2022-12-25T13:08:07.751Z,5.51
2022-12-25T13:10:37.997Z,5.50
2022-12-25T13:13:31.667Z,5.45
2022-12-25T13:16:00.763Z,5.42
2022-12-25T13:18:28.683Z,5.43
2022-12-25T13:20:59.768Z,5.45
2022-12-25T13:23:36.108Z,5.44
2022-12-25T13:26:08.580Z,5.51
2022-12-25T13:28:36.931Z,5.43
2022-12-25T13:31:19.556Z,5.43
2022-12-25T13:34:01.185Z,5.46
2022-12-25T13:36:30.489Z,5.49
2022-12-25T13:38:59.930Z,5.45
2022-12-25T13:45:16.147Z,5.49
2022-12-25T13:50:36.727Z,5.45
2022-12-25T13:53:17.422Z,5.48
2022-12-25T13:55:52.601Z,5.49
2022-12-25T13:58:38.181Z,5.52
2022-12-25T14:04:22.989Z,5.54
2022-12-25T14:06:52.626Z,5.48
2022-12-25T14:09:23.303Z,5.52
2022-12-25T14:11:53.146Z,5.50
2022-12-25T14:14:24.376Z,5.54
2022-12-25T14:16:59.574Z,5.47
2022-12-25T14:22:32.135Z,5.50
2022-12-25T14:24:59.766Z,5.53
2022-12-25T14:27:33.391Z,5.57
2022-12-25T14:30:03.584Z,5.57
2022-12-25T14:32:39.801Z,5.55
2022-12-25T14:35:11.494Z,5.56
2022-12-25T14:37:41.493Z,5.60
2022-12-25T14:40:31.098Z,5.63
2022-12-25T14:43:02.113Z,5.61
2022-12-25T14:45:42.753Z,5.69
2022-12-25T14:48:25.279Z,5.69
2022-12-25T14:51:02.251Z,5.64
2022-12-25T14:53:41.514Z,5.69
2022-12-25T14:56:23.292Z,5.62
2022-12-25T14:58:58.273Z,5.70
2022-12-25T15:01:51.034Z,5.73
2022-12-25T15:04:23.966Z,5.66
2022-12-25T15:07:01.442Z,5.69
2022-12-25T15:09:31.331Z,5.71
2022-12-25T15:12:01.815Z,5.77
2022-12-25T15:14:34.625Z,5.75
2022-12-25T15:19:54.199Z,5.85
2022-12-25T15:22:25.738Z,5.84
2022-12-25T15:25:01.045Z,5.83
2022-12-25T15:27:31.372Z,5.86
2022-12-25T15:30:09.781Z,5.84
2022-12-25T15:32:46.632Z,5.88
2022-12-25T15:35:23.258Z,5.89
2022-12-25T15:37:50.601Z,5.88
2022-12-25T15:40:21.533Z,5.88
2022-12-25T15:42:50.181Z,5.91
2022-12-25T15:45:26.814Z,5.90
2022-12-25T15:47:55.537Z,5.88
2022-12-25T15:50:26.210Z,5.90
2022-12-25T15:52:56.489Z,5.88
2022-12-25T15:55:24.730Z,5.86
2022-12-25T15:57:57.821Z,5.84
2022-12-25T16:00:27.599Z,5.85
2022-12-25T16:02:59.299Z,5.93
2022-12-25T16:05:28.029Z,5.87
2022-12-25T16:07:58.198Z,5.80
2022-12-25T16:10:25.175Z,5.88
2022-12-25T16:13:25.581Z,5.89
2022-12-25T16:15:52.688Z,5.89
2022-12-25T16:18:21.377Z,5.88
2022-12-25T16:20:48.741Z,5.89
2022-12-25T16:23:16.893Z,5.84
2022-12-25T16:25:43.939Z,5.89
2022-12-25T16:28:13.873Z,5.88
2022-12-25T16:30:44.340Z,5.88
2022-12-25T16:33:16.342Z,5.81
2022-12-25T16:35:52.580Z,5.86
2022-12-25T16:38:29.154Z,5.82
2022-12-25T16:40:59.897Z,5.81
2022-12-25T16:43:37.441Z,5.84
2022-12-25T16:46:15.318Z,5.75
2022-12-25T16:48:43.826Z,5.77
2022-12-25T16:51:19.548Z,5.73
2022-12-25T16:54:04.493Z,5.73
2022-12-25T16:56:32.555Z,5.74
2022-12-25T16:59:01.523Z,5.78
2022-12-25T17:01:29.019Z,5.76
2022-12-25T17:04:12.471Z,5.71
2022-12-25T17:07:08.293Z,5.70
2022-12-25T17:09:44.781Z,5.70
2022-12-25T17:16:21.085Z,5.59
2022-12-25T17:19:05.203Z,5.65
2022-12-25T17:21:41.516Z,5.65
2022-12-25T17:24:18.545Z,5.73
2022-12-25T17:26:45.770Z,5.71
2022-12-25T17:29:26.831Z,5.71
2022-12-25T17:32:00.098Z,5.63
2022-12-25T17:34:30.801Z,5.65
2022-12-25T17:37:10.208Z,5.62
2022-12-25T17:39:53.096Z,5.61
2022-12-25T17:42:29.448Z,5.54
2022-12-25T17:44:57.822Z,5.57
2022-12-25T17:47:31.219Z,5.55
2022-12-25T17:50:06.285Z,5.61
2022-12-25T17:52:53.824Z,5.61
2022-12-25T17:55:22.254Z,5.62
2022-12-25T17:57:59.442Z,5.55
2022-12-25T18:03:18.685Z,5.45
2022-12-25T18:05:54.981Z,5.44
2022-12-25T18:08:38.963Z,5.42
2022-12-25T18:11:20.755Z,5.44
2022-12-25T18:13:52.142Z,5.38
2022-12-25T18:16:25.721Z,5.45
2022-12-25T18:18:54.770Z,5.44
2022-12-25T18:21:25.014Z,5.45
2022-12-25T18:23:56.628Z,5.41
2022-12-25T18:26:30.843Z,5.46
2022-12-25T18:29:00.016Z,5.42
2022-12-25T18:31:41.747Z,5.37
2022-12-25T18:34:22.296Z,5.36
2022-12-25T18:37:04.717Z,5.34
2022-12-25T18:39:36.913Z,5.30
2022-12-25T18:42:22.991Z,5.32
2022-12-25T18:44:56.201Z,5.26
2022-12-25T18:47:25.938Z,5.32
2022-12-25T18:49:53.645Z,5.27
2022-12-25T18:52:48.293Z,5.18
2022-12-25T18:55:13.064Z,5.23
2022-12-25T18:57:40.990Z,5.22
2022-12-25T19:00:09.300Z,5.21
2022-12-25T19:02:37.255Z,5.13
2022-12-25T19:05:13.123Z,5.08
2022-12-25T19:07:40.918Z,5.11
2022-12-25T19:10:10.432Z,5.10
2022-12-25T19:12:37.560Z,5.14
2022-12-25T19:15:05.418Z,5.08
2022-12-25T19:17:34.402Z,5.09
2022-12-25T19:20:02.209Z,5.08
2022-12-25T19:22:29.630Z,5.07
2022-12-25T19:24:57.804Z,5.07
2022-12-25T19:27:25.208Z,5.07
2022-12-25T19:29:57.875Z,5.05
2022-12-25T19:32:33.431Z,5.07
2022-12-25T19:35:04.581Z,4.97
2022-12-25T19:37:32.276Z,5.07
2022-12-25T19:40:23.500Z,5.07
2022-12-25T19:42:53.392Z,5.08
2022-12-25T19:45:21.990Z,5.08
2022-12-25T19:47:49.013Z,5.11
2022-12-25T19:50:19.280Z,5.11
2022-12-25T19:52:48.009Z,5.08
2022-12-25T19:55:27.792Z,5.13
2022-12-25T19:57:57.963Z,5.05
2022-12-25T20:00:26.762Z,5.09
2022-12-25T20:02:53.902Z,5.05
2022-12-25T20:05:21.741Z,5.10
2022-12-25T20:07:49.382Z,5.05
2022-12-25T20:10:19.183Z,5.04
2022-12-25T20:12:47.440Z,5.10
2022-12-25T20:15:24.257Z,5.04
2022-12-25T20:18:11.140Z,5.04
2022-12-25T20:20:38.695Z,5.09
2022-12-25T20:23:06.852Z,5.12
2022-12-25T20:25:42.723Z,5.09
2022-12-25T20:28:09.940Z,5.07
2022-12-25T20:30:40.916Z,5.07
2022-12-25T20:33:11.237Z,5.02
2022-12-25T20:35:44.752Z,5.05
2022-12-25T20:38:14.802Z,5.08
2022-12-25T20:41:24.357Z,5.05
2022-12-25T20:43:30.503Z,5.10
2022-12-25T20:46:00.804Z,5.13
2022-12-25T20:48:28.704Z,5.04
2022-12-25T20:51:30.072Z,5.11
2022-12-25T20:54:08.078Z,5.08
2022-12-25T20:57:11.602Z,5.07
2022-12-25T21:02:35.740Z,5.07
2022-12-25T21:05:08.464Z,5.12
2022-12-25T21:07:35.858Z,5.12
2022-12-25T21:10:04.884Z,5.10
2022-12-25T21:12:36.245Z,5.12
2022-12-25T21:15:03.821Z,5.14
2022-12-25T21:17:32.342Z,5.10
2022-12-25T21:20:00.804Z,5.09
2022-12-25T21:22:35.919Z,5.07
2022-12-25T21:25:03.093Z,5.07
2022-12-25T21:27:30.462Z,5.05
2022-12-25T21:30:14.914Z,5.04
2022-12-25T21:33:02.093Z,5.11
2022-12-25T21:35:29.324Z,5.10
2022-12-25T21:38:02.733Z,5.09
2022-12-25T21:40:30.541Z,5.12
2022-12-25T21:43:24.193Z,5.12
2022-12-25T21:45:55.926Z,5.10
2022-12-25T21:48:30.534Z,5.07
2022-12-25T21:51:36.368Z,5.08
2022-12-25T21:54:04.823Z,5.03
2022-12-25T21:56:38.317Z,4.99
2022-12-25T21:59:12.628Z,4.97
2022-12-25T22:01:41.367Z,4.94
2022-12-25T22:04:11.907Z,4.90
2022-12-25T22:06:59.922Z,4.79
2022-12-25T22:09:27.613Z,4.74
2022-12-25T22:12:13.812Z,4.75
2022-12-25T22:14:56.690Z,4.69
2022-12-25T22:17:47.417Z,4.65
2022-12-25T22:20:34.886Z,4.66
2022-12-25T22:23:04.551Z,4.56
2022-12-25T22:25:33.336Z,4.63
2022-12-25T22:28:00.780Z,4.62
2022-12-25T22:30:29.663Z,4.60
2022-12-25T22:32:59.197Z,4.57
2022-12-25T22:35:26.360Z,4.56
2022-12-25T22:37:54.346Z,4.55
2022-12-25T22:40:22.715Z,4.57
2022-12-25T22:42:54.153Z,4.56
2022-12-25T22:45:21.179Z,4.58
2022-12-25T22:47:48.586Z,4.55
2022-12-25T22:50:16.267Z,4.51
2022-12-25T22:52:45.815Z,4.47
2022-12-25T22:55:15.830Z,4.49
2022-12-25T22:57:43.211Z,4.45
2022-12-25T23:00:13.701Z,4.42
2022-12-25T23:02:41.217Z,4.35
2022-12-25T23:05:08.776Z,4.38
2022-12-25T23:07:37.212Z,4.41
2022-12-25T23:10:06.708Z,4.48
2022-12-25T23:12:52.778Z,4.51
2022-12-25T23:15:21.069Z,4.45
2022-12-25T23:18:07.274Z,4.45
2022-12-25T23:20:54.741Z,4.42
2022-12-25T23:23:41.180Z,4.42
2022-12-25T23:26:09.309Z,4.44
2022-12-25T23:29:00.869Z,4.45
2022-12-25T23:31:35.190Z,4.44
2022-12-25T23:34:04.924Z,4.39
2022-12-25T23:36:32.787Z,4.42
2022-12-25T23:39:06.835Z,4.40
2022-12-25T23:41:37.092Z,4.34
2022-12-25T23:44:04.689Z,4.36
2022-12-25T23:46:32.324Z,4.39
2022-12-25T23:48:59.886Z,4.36
2022-12-25T23:51:26.910Z,4.29
2022-12-25T23:53:54.245Z,4.34
2022-12-25T23:56:22.346Z,4.32
2022-12-25T23:58:53.884Z,4.35
